Time;durP1;ratioP1;P1;durP2;ratioP2;P2;SDS_P1;SDS_P2;PMS_P1;PMS_P2;Temp;Humidity;BMP_temperature;BMP_pressure;BME280_temperature;BME280_humidity;BME280_pressure;Samples;Min_cycle;Max_cycle;Signal;HPM_P1;HPM_P2
2021/07/18 00:01:27;;;;;;;;;;;23.40;89.00;;;;;;5202631;28;19936;-58
2021/07/18 00:03:59;;;;;;;;;;;23.40;88.90;;;;;;5203248;28;19932;-58
2021/07/18 00:06:47;;;;;;;;;;;23.40;89.00;;;;;;5194969;28;19936;-58
2021/07/18 00:09:19;;;;;;;;;;;23.40;89.20;;;;;;5202640;28;19928;-58
2021/07/18 00:11:51;;;;;;;;;;;23.30;89.10;;;;;;5202368;28;19921;-57
2021/07/18 00:14:24;;;;;;;;;;;23.30;88.80;;;;;;5201939;28;20641;-59
2021/07/18 00:16:57;;;;;;;;;;;23.30;88.90;;;;;;5195369;28;19929;-58
2021/07/18 00:19:29;;;;;;;;;;;23.30;89.00;;;;;;5187647;28;19924;-56
2021/07/18 00:22:02;;;;;;;;;;;23.30;89.30;;;;;;5194622;28;19931;-58
2021/07/18 00:24:34;;;;;;;;;;;23.30;89.30;;;;;;5194313;28;19998;-58
2021/07/18 00:27:07;;;;;;;;;;;23.30;89.20;;;;;;5199942;28;19924;-58
2021/07/18 00:29:43;;;;;;;;;;;23.30;89.20;;;;;;5203925;28;19932;-58
2021/07/18 00:32:16;;;;;;;;;;;23.30;89.20;;;;;;5199610;28;19920;-58
2021/07/18 00:34:48;;;;;;;;;;;23.30;89.10;;;;;;5200798;28;19928;-58
2021/07/18 00:37:20;;;;;;;;;;;23.30;89.20;;;;;;5198148;28;20393;-58
2021/07/18 00:39:52;;;;;;;;;;;23.40;89.30;;;;;;5199104;28;19925;-58
2021/07/18 00:42:25;;;;;;;;;;;23.30;89.20;;;;;;5187310;28;19956;-58
2021/07/18 00:45:01;;;;;;;;;;;23.30;89.30;;;;;;5200944;28;20403;-58
2021/07/18 00:47:38;;;;;;;;;;;23.30;89.10;;;;;;5203537;28;20316;-55
2021/07/18 00:50:11;;;;;;;;;;;23.30;89.20;;;;;;5198202;28;20536;-58
2021/07/18 00:52:43;;;;;;;;;;;23.30;89.30;;;;;;5199895;28;19936;-58
2021/07/18 00:55:16;;;;;;;;;;;23.30;89.10;;;;;;5197060;28;19929;-58
2021/07/18 00:57:48;;;;;;;;;;;23.30;89.20;;;;;;5205415;28;20431;-58
2021/07/18 01:00:20;;;;;;;;;;;23.30;89.10;;;;;;5202037;28;19925;-58
2021/07/18 01:02:53;;;;;;;;;;;23.30;89.10;;;;;;5201116;28;19929;-58
2021/07/18 01:05:26;;;;;;;;;;;23.30;89.00;;;;;;5190421;28;19931;-58
2021/07/18 01:07:59;;;;;;;;;;;23.30;89.00;;;;;;5200561;28;19924;-58
2021/07/18 01:10:31;;;;;;;;;;;23.30;89.00;;;;;;5192177;28;19924;-58
2021/07/18 01:13:03;;;;;;;;;;;23.30;88.90;;;;;;5195988;28;20296;-56
2021/07/18 01:15:43;;;;;;;;;;;23.30;89.10;;;;;;5176025;28;20274;-58
2021/07/18 01:18:15;;;;;;;;;;;23.30;89.00;;;;;;5189788;28;19928;-57
2021/07/18 01:20:48;;;;;;;;;;;23.20;88.80;;;;;;5189925;28;19925;-58
2021/07/18 01:23:20;;;;;;;;;;;23.30;89.00;;;;;;5198177;28;19969;-59
2021/07/18 01:25:53;;;;;;;;;;;23.30;89.10;;;;;;5172457;28;20535;-58
2021/07/18 01:28:25;;;;;;;;;;;23.30;89.00;;;;;;5202740;28;19925;-58
2021/07/18 01:30:58;;;;;;;;;;;23.30;89.10;;;;;;5204604;28;20689;-58
2021/07/18 01:33:30;;;;;;;;;;;23.30;89.10;;;;;;5185340;28;19920;-58
2021/07/18 01:36:02;;;;;;;;;;;23.30;89.10;;;;;;5200696;28;20254;-58
2021/07/18 01:38:34;;;;;;;;;;;23.30;89.20;;;;;;5199886;28;19924;-58
2021/07/18 01:41:06;;;;;;;;;;;23.30;89.10;;;;;;5194463;28;19936;-58
2021/07/18 01:43:38;;;;;;;;;;;23.30;89.00;;;;;;5200306;28;20320;-58
2021/07/18 01:46:11;;;;;;;;;;;23.30;89.10;;;;;;5198849;28;19924;-57
2021/07/18 01:48:43;;;;;;;;;;;23.20;88.90;;;;;;5198771;28;19931;-58
2021/07/18 01:51:19;;;;;;;;;;;23.30;88.80;;;;;;5200372;28;19921;-59
2021/07/18 01:53:55;;;;;;;;;;;23.30;88.70;;;;;;5201589;28;19928;-58
2021/07/18 01:56:28;;;;;;;;;;;23.20;88.60;;;;;;5202319;28;19921;-57
2021/07/18 01:59:00;;;;;;;;;;;23.20;88.70;;;;;;5211116;28;19921;-58
2021/07/18 02:01:33;;;;;;;;;;;23.30;88.80;;;;;;5203867;28;19943;-58
2021/07/18 02:04:05;;;;;;;;;;;23.20;88.80;;;;;;5204826;28;19951;-58
2021/07/18 02:06:38;;;;;;;;;;;23.20;88.60;;;;;;5193305;28;19925;-57
2021/07/18 02:09:10;;;;;;;;;;;23.20;88.50;;;;;;5205915;28;20786;-58
2021/07/18 02:11:42;;;;;;;;;;;23.20;88.50;;;;;;5190833;28;19928;-58
2021/07/18 02:14:15;;;;;;;;;;;23.20;88.50;;;;;;5192515;28;21590;-58
2021/07/18 02:16:49;;;;;;;;;;;23.20;88.60;;;;;;5198426;28;19929;-56
2021/07/18 02:19:21;;;;;;;;;;;23.20;88.30;;;;;;5200730;28;20483;-58
2021/07/18 02:21:54;;;;;;;;;;;23.20;88.30;;;;;;5199717;28;19925;-58
2021/07/18 02:24:26;;;;;;;;;;;23.20;88.30;;;;;;5199410;28;19932;-58
2021/07/18 02:26:58;;;;;;;;;;;23.20;88.20;;;;;;5190366;28;19932;-58
2021/07/18 02:29:30;;;;;;;;;;;23.20;88.20;;;;;;5200387;28;20384;-58
2021/07/18 02:32:03;;;;;;;;;;;23.20;88.20;;;;;;5203211;28;20414;-57
2021/07/18 02:34:36;;;;;;;;;;;23.20;88.20;;;;;;5204065;28;19925;-58
2021/07/18 02:37:08;;;;;;;;;;;23.20;88.10;;;;;;5205051;28;20488;-58
2021/07/18 02:39:40;;;;;;;;;;;23.20;88.00;;;;;;5204655;28;19932;-58
2021/07/18 02:42:13;;;;;;;;;;;23.20;87.90;;;;;;5201003;28;20012;-57
2021/07/18 02:44:45;;;;;;;;;;;23.20;87.90;;;;;;5203883;28;20281;-57
2021/07/18 02:47:18;;;;;;;;;;;23.20;87.90;;;;;;5178223;28;20309;-58
2021/07/18 02:49:50;;;;;;;;;;;23.20;87.90;;;;;;5201243;28;19931;-58
2021/07/18 02:52:22;;;;;;;;;;;23.10;87.80;;;;;;5196914;28;19925;-58
2021/07/18 02:54:55;;;;;;;;;;;23.10;87.90;;;;;;5199513;28;19932;-58
2021/07/18 02:57:28;;;;;;;;;;;23.20;87.90;;;;;;5192385;28;19928;-59
2021/07/18 03:00:00;;;;;;;;;;;23.10;87.80;;;;;;5205627;28;19932;-58
2021/07/18 03:02:32;;;;;;;;;;;23.10;87.70;;;;;;5202834;28;19940;-58
2021/07/18 03:05:05;;;;;;;;;;;23.10;87.70;;;;;;5202362;28;19925;-57
2021/07/18 03:07:37;;;;;;;;;;;23.20;87.60;;;;;;5201553;28;19925;-58
2021/07/18 03:10:10;;;;;;;;;;;23.20;87.50;;;;;;5202370;28;19932;-58
2021/07/18 03:12:44;;;;;;;;;;;23.10;87.50;;;;;;5179951;28;20391;-58
2021/07/18 03:15:16;;;;;;;;;;;23.20;87.50;;;;;;5198468;28;19925;-58
2021/07/18 03:17:48;;;;;;;;;;;23.10;87.30;;;;;;5176841;28;19936;-57
2021/07/18 03:20:21;;;;;;;;;;;23.10;87.20;;;;;;5183002;28;19920;-58
2021/07/18 03:22:53;;;;;;;;;;;23.10;87.10;;;;;;5190136;28;20657;-58
2021/07/18 03:25:25;;;;;;;;;;;23.10;87.00;;;;;;5181664;28;19924;-57
2021/07/18 03:27:58;;;;;;;;;;;23.10;86.90;;;;;;5182803;28;19929;-57
2021/07/18 03:30:30;;;;;;;;;;;23.20;86.90;;;;;;5186836;28;19921;-58
2021/07/18 03:33:02;;;;;;;;;;;23.10;86.80;;;;;;5184359;28;19925;-58
2021/07/18 03:35:35;;;;;;;;;;;23.10;86.90;;;;;;5190453;28;20367;-58
2021/07/18 03:38:07;;;;;;;;;;;23.10;86.80;;;;;;5169619;28;20066;-58
2021/07/18 03:40:39;;;;;;;;;;;23.20;86.90;;;;;;5186708;28;19928;-57
2021/07/18 03:43:11;;;;;;;;;;;23.10;86.70;;;;;;5162642;28;19925;-58
2021/07/18 03:45:44;;;;;;;;;;;23.10;86.70;;;;;;5175915;28;20334;-58
2021/07/18 03:48:16;;;;;;;;;;;23.10;86.60;;;;;;5200683;28;20745;-58
2021/07/18 03:50:49;;;;;;;;;;;23.10;86.60;;;;;;5197372;28;19936;-58
2021/07/18 03:53:22;;;;;;;;;;;23.10;86.60;;;;;;5200437;28;19932;-57
2021/07/18 03:55:54;;;;;;;;;;;23.10;86.40;;;;;;5195350;28;19920;-58
2021/07/18 03:58:26;;;;;;;;;;;23.20;86.50;;;;;;5196235;28;19967;-58
2021/07/18 04:00:58;;;;;;;;;;;23.20;86.40;;;;;;5190442;28;19936;-59
2021/07/18 04:03:31;;;;;;;;;;;23.20;86.40;;;;;;5191713;28;20164;-59
2021/07/18 04:06:03;;;;;;;;;;;23.20;86.30;;;;;;5188229;28;19928;-58
2021/07/18 04:08:36;;;;;;;;;;;23.20;86.30;;;;;;5184270;28;19920;-58
2021/07/18 04:11:08;;;;;;;;;;;23.20;86.20;;;;;;5190397;28;19936;-57
2021/07/18 04:13:40;;;;;;;;;;;23.20;86.20;;;;;;5187025;28;19925;-58
2021/07/18 04:16:12;;;;;;;;;;;23.20;86.20;;;;;;5162956;28;19925;-58
2021/07/18 04:18:45;;;;;;;;;;;23.20;86.20;;;;;;5188503;28;21210;-57
2021/07/18 04:21:19;;;;;;;;;;;23.20;86.20;;;;;;5196219;28;20388;-58
2021/07/18 04:23:52;;;;;;;;;;;23.20;86.20;;;;;;5183829;28;19951;-56
2021/07/18 04:26:24;;;;;;;;;;;23.20;86.20;;;;;;5183525;28;19925;-58
2021/07/18 04:28:56;;;;;;;;;;;23.20;86.20;;;;;;5196699;28;19991;-58
2021/07/18 04:31:28;;;;;;;;;;;23.20;86.20;;;;;;5193559;28;19952;-57
2021/07/18 04:34:01;;;;;;;;;;;23.20;86.20;;;;;;5196682;28;20012;-58
2021/07/18 04:36:33;;;;;;;;;;;23.20;86.10;;;;;;5195332;28;19921;-58
2021/07/18 04:39:06;;;;;;;;;;;23.20;86.10;;;;;;5193552;28;20308;-58
2021/07/18 04:41:38;;;;;;;;;;;23.20;86.00;;;;;;5201109;28;20731;-58
2021/07/18 04:44:11;;;;;;;;;;;23.20;86.00;;;;;;5197057;28;19925;-58
2021/07/18 04:46:43;;;;;;;;;;;23.20;86.10;;;;;;5199822;28;19931;-59
2021/07/18 04:49:15;;;;;;;;;;;23.20;86.00;;;;;;5179587;28;20312;-58
2021/07/18 04:51:47;;;;;;;;;;;23.20;85.90;;;;;;5198830;28;19924;-58
2021/07/18 04:54:20;;;;;;;;;;;23.20;86.00;;;;;;5200082;28;19936;-58
2021/07/18 04:56:52;;;;;;;;;;;23.20;86.00;;;;;;5201007;28;19943;-58
2021/07/18 04:59:24;;;;;;;;;;;23.20;85.90;;;;;;5203830;28;20304;-58
2021/07/18 05:01:57;;;;;;;;;;;23.20;85.90;;;;;;5202767;28;19921;-58
2021/07/18 05:04:30;;;;;;;;;;;23.20;85.80;;;;;;5200239;28;19948;-58
2021/07/18 05:07:02;;;;;;;;;;;23.20;85.90;;;;;;5211724;28;19935;-57
2021/07/18 05:09:34;;;;;;;;;;;23.20;85.80;;;;;;5186350;28;19924;-58
2021/07/18 05:12:06;;;;;;;;;;;23.20;85.80;;;;;;5189695;28;19929;-57
2021/07/18 05:14:42;;;;;;;;;;;23.20;85.80;;;;;;5176402;28;19925;-58
2021/07/18 05:17:14;;;;;;;;;;;23.20;85.80;;;;;;5182666;28;19925;-58
2021/07/18 05:19:46;;;;;;;;;;;23.20;85.70;;;;;;5186897;28;19929;-58
2021/07/18 05:22:19;;;;;;;;;;;23.20;85.70;;;;;;5199332;28;19929;-57
2021/07/18 05:24:53;;;;;;;;;;;23.20;85.70;;;;;;5184140;28;22462;-56
2021/07/18 05:27:25;;;;;;;;;;;23.20;85.70;;;;;;5185827;28;20461;-58
2021/07/18 05:29:57;;;;;;;;;;;23.20;85.60;;;;;;5189863;28;19921;-58
2021/07/18 05:32:29;;;;;;;;;;;23.20;85.60;;;;;;5197061;28;19929;-58
2021/07/18 05:35:02;;;;;;;;;;;23.20;85.60;;;;;;5203041;28;19932;-58
2021/07/18 05:37:34;;;;;;;;;;;23.20;85.60;;;;;;5180237;28;19925;-57
2021/07/18 05:40:08;;;;;;;;;;;23.20;85.50;;;;;;5181347;28;19925;-58
2021/07/18 05:42:40;;;;;;;;;;;23.20;85.50;;;;;;5186366;28;19936;-58
2021/07/18 05:45:13;;;;;;;;;;;23.20;85.50;;;;;;5200520;28;19955;-57
2021/07/18 05:47:45;;;;;;;;;;;23.20;85.50;;;;;;5191677;28;19952;-58
2021/07/18 05:50:18;;;;;;;;;;;23.20;85.40;;;;;;5195097;28;20369;-58
2021/07/18 05:52:50;;;;;;;;;;;23.20;85.40;;;;;;5181683;28;19925;-58
2021/07/18 05:55:23;;;;;;;;;;;23.20;85.40;;;;;;5186985;28;19932;-58
2021/07/18 05:57:55;;;;;;;;;;;23.20;85.40;;;;;;5189707;28;19924;-58
2021/07/18 06:00:28;;;;;;;;;;;23.20;85.50;;;;;;5191654;28;19924;-58
2021/07/18 06:03:00;;;;;;;;;;;23.20;85.30;;;;;;5196329;28;19929;-56
2021/07/18 06:05:33;;;;;;;;;;;23.20;85.60;;;;;;5195278;28;19932;-57
2021/07/18 06:08:05;;;;;;;;;;;23.20;85.30;;;;;;5189957;28;20328;-58
2021/07/18 06:10:37;;;;;;;;;;;23.20;85.30;;;;;;5197085;28;19929;-57
2021/07/18 06:13:09;;;;;;;;;;;23.20;85.30;;;;;;5197928;28;20278;-58
2021/07/18 06:15:42;;;;;;;;;;;23.20;85.30;;;;;;5193437;28;22017;-55
2021/07/18 06:18:14;;;;;;;;;;;23.20;85.40;;;;;;5210646;28;20362;-58
2021/07/18 06:20:46;;;;;;;;;;;23.20;85.30;;;;;;5192611;28;19929;-58
2021/07/18 06:23:18;;;;;;;;;;;23.20;85.30;;;;;;5197917;28;19921;-58
2021/07/18 06:26:05;;;;;;;;;;;23.20;85.30;;;;;;5197757;28;20399;-57
2021/07/18 06:28:37;;;;;;;;;;;23.20;85.40;;;;;;5183298;28;19927;-58
2021/07/18 06:31:09;;;;;;;;;;;23.20;85.30;;;;;;5187399;28;19924;-58
2021/07/18 06:33:42;;;;;;;;;;;23.20;85.20;;;;;;5201624;28;19959;-58
2021/07/18 06:36:14;;;;;;;;;;;23.20;85.20;;;;;;5190511;28;19926;-57
2021/07/18 06:38:46;;;;;;;;;;;23.20;85.40;;;;;;5196856;28;19925;-57
2021/07/18 06:41:18;;;;;;;;;;;23.20;85.30;;;;;;5187984;28;19925;-58
2021/07/18 06:43:50;;;;;;;;;;;23.20;85.30;;;;;;5172587;28;19940;-58
2021/07/18 06:46:33;;;;;;;;;;;23.20;85.20;;;;;;5194275;28;20396;-58
2021/07/18 06:49:05;;;;;;;;;;;23.20;85.20;;;;;;5175148;28;19936;-58
2021/07/18 06:51:37;;;;;;;;;;;23.20;85.20;;;;;;5188689;28;19920;-57
2021/07/18 06:54:09;;;;;;;;;;;23.20;85.20;;;;;;5196430;28;19969;-58
2021/07/18 06:56:41;;;;;;;;;;;23.20;85.20;;;;;;5194081;28;19924;-58
2021/07/18 06:59:14;;;;;;;;;;;23.20;85.20;;;;;;5198537;28;20416;-58
2021/07/18 07:01:46;;;;;;;;;;;23.20;85.20;;;;;;5188202;28;19925;-58
2021/07/18 07:04:18;;;;;;;;;;;23.20;85.20;;;;;;5185872;28;20275;-58
2021/07/18 07:06:50;;;;;;;;;;;23.20;85.20;;;;;;5202430;28;19936;-58
2021/07/18 07:09:24;;;;;;;;;;;23.20;85.20;;;;;;5194043;28;19929;-56
2021/07/18 07:11:56;;;;;;;;;;;23.20;85.20;;;;;;5194523;28;19925;-58
2021/07/18 07:14:29;;;;;;;;;;;23.20;85.10;;;;;;5194164;28;19929;-58
2021/07/18 07:17:01;;;;;;;;;;;23.20;85.10;;;;;;5189268;28;20873;-58
2021/07/18 07:19:34;;;;;;;;;;;23.20;85.00;;;;;;5190897;28;20486;-58
2021/07/18 07:22:06;;;;;;;;;;;23.20;85.00;;;;;;5189391;28;19925;-58
2021/07/18 07:24:39;;;;;;;;;;;23.20;85.00;;;;;;5188670;28;19925;-58
2021/07/18 07:27:11;;;;;;;;;;;23.20;85.00;;;;;;5188970;28;19935;-58
2021/07/18 07:29:43;;;;;;;;;;;23.20;85.10;;;;;;5189268;28;19944;-58
2021/07/18 07:32:15;;;;;;;;;;;23.20;85.10;;;;;;5184773;28;19928;-57
2021/07/18 07:34:48;;;;;;;;;;;23.20;85.10;;;;;;5183858;28;19932;-57
2021/07/18 07:37:24;;;;;;;;;;;23.20;85.20;;;;;;5191125;28;19929;-58
2021/07/18 07:39:56;;;;;;;;;;;23.20;85.20;;;;;;5183323;28;19940;-58
2021/07/18 07:42:29;;;;;;;;;;;23.20;85.10;;;;;;5191076;28;19932;-58
2021/07/18 07:45:02;;;;;;;;;;;23.20;85.10;;;;;;5191576;28;19959;-58
2021/07/18 07:47:34;;;;;;;;;;;23.20;85.10;;;;;;5192900;28;19924;-58
2021/07/18 07:50:08;;;;;;;;;;;23.20;85.10;;;;;;5182916;28;19952;-58
2021/07/18 07:52:41;;;;;;;;;;;23.20;85.10;;;;;;5188669;28;19936;-58
2021/07/18 07:55:13;;;;;;;;;;;23.20;85.10;;;;;;5195616;28;19929;-58
2021/07/18 07:57:45;;;;;;;;;;;23.20;85.00;;;;;;5191819;28;19928;-58
2021/07/18 08:00:18;;;;;;;;;;;23.20;85.70;;;;;;5184766;28;20671;-58
2021/07/18 08:02:50;;;;;;;;;;;23.20;85.10;;;;;;5209423;28;19932;-58
2021/07/18 08:05:23;;;;;;;;;;;23.20;85.10;;;;;;5189782;28;19929;-58
2021/07/18 08:07:55;;;;;;;;;;;23.20;85.20;;;;;;5196496;28;19921;-58
2021/07/18 08:10:28;;;;;;;;;;;23.20;85.20;;;;;;5187836;28;19925;-57
2021/07/18 08:13:00;;;;;;;;;;;23.20;85.10;;;;;;5194160;28;19924;-58
2021/07/18 08:15:34;;;;;;;;;;;23.30;85.30;;;;;;5185897;28;19998;-58
2021/07/18 08:18:06;;;;;;;;;;;23.20;85.40;;;;;;5193512;28;19928;-56
2021/07/18 08:20:38;;;;;;;;;;;23.20;85.10;;;;;;5186042;28;19939;-59
2021/07/18 08:23:10;;;;;;;;;;;23.20;85.10;;;;;;5175003;28;20393;-58
2021/07/18 08:25:43;;;;;;;;;;;23.20;85.70;;;;;;5186336;28;19932;-58
2021/07/18 08:28:15;;;;;;;;;;;23.20;85.00;;;;;;5184946;28;19931;-58
2021/07/18 08:30:47;;;;;;;;;;;23.20;85.10;;;;;;5172937;28;19924;-59
2021/07/18 08:33:20;;;;;;;;;;;23.20;85.10;;;;;;5185432;28;19928;-58
2021/07/18 08:35:52;;;;;;;;;;;23.20;85.10;;;;;;5191043;28;19928;-58
2021/07/18 08:38:25;;;;;;;;;;;23.20;84.90;;;;;;5197329;28;19932;-58
2021/07/18 08:40:57;;;;;;;;;;;23.20;85.20;;;;;;5195677;28;19925;-59
2021/07/18 08:43:48;;;;;;;;;;;23.20;84.90;;;;;;5198120;28;19947;-58
2021/07/18 08:46:20;;;;;;;;;;;23.30;84.90;;;;;;5184689;28;19935;-58
2021/07/18 08:48:53;;;;;;;;;;;23.20;84.70;;;;;;5203259;28;19925;-59
2021/07/18 08:51:25;;;;;;;;;;;23.20;84.60;;;;;;5202549;28;19921;-59
2021/07/18 08:53:58;;;;;;;;;;;23.20;84.60;;;;;;5197780;28;19931;-58
2021/07/18 08:56:36;;;;;;;;;;;23.20;84.70;;;;;;5202467;28;19929;-59
2021/07/18 08:59:09;;;;;;;;;;;23.20;84.60;;;;;;5187313;28;19924;-59
2021/07/18 09:01:42;;;;;;;;;;;23.20;84.50;;;;;;5213095;28;19929;-58
2021/07/18 09:04:33;;;;;;;;;;;23.20;84.50;;;;;;5210455;28;20413;-59
2021/07/18 09:07:06;;;;;;;;;;;23.20;84.30;;;;;;5191692;28;20007;-58
2021/07/18 09:09:38;;;;;;;;;;;23.10;84.30;;;;;;5204621;28;20313;-59
2021/07/18 09:12:10;;;;;;;;;;;23.10;84.20;;;;;;5188142;28;19929;-59
2021/07/18 09:14:47;;;;;;;;;;;23.10;84.30;;;;;;5190514;28;20249;-58
2021/07/18 09:17:21;;;;;;;;;;;23.10;84.20;;;;;;5207330;28;20123;-59
2021/07/18 09:19:53;;;;;;;;;;;23.10;84.30;;;;;;5217346;28;19938;-58
2021/07/18 09:22:25;;;;;;;;;;;23.10;84.60;;;;;;5197834;28;19936;-59
2021/07/18 09:25:00;;;;;;;;;;;23.10;84.60;;;;;;5199842;28;20011;-59
2021/07/18 09:27:33;;;;;;;;;;;23.10;84.50;;;;;;5190365;28;20396;-57
2021/07/18 09:30:10;;;;;;;;;;;23.10;84.20;;;;;;5177472;28;20336;-58
2021/07/18 09:32:47;;;;;;;;;;;23.10;84.30;;;;;;5187741;28;19928;-59
2021/07/18 09:35:20;;;;;;;;;;;23.10;84.30;;;;;;5208455;28;19936;-59
2021/07/18 09:37:52;;;;;;;;;;;23.10;84.20;;;;;;5175834;28;19932;-59
2021/07/18 09:40:24;;;;;;;;;;;23.20;84.10;;;;;;5166596;28;20528;-59
2021/07/18 09:42:59;;;;;;;;;;;23.20;84.20;;;;;;5183331;28;20495;-58
2021/07/18 09:45:31;;;;;;;;;;;23.20;84.40;;;;;;5175172;28;19929;-58
2021/07/18 09:48:10;;;;;;;;;;;23.20;84.80;;;;;;5174430;28;19929;-58
2021/07/18 09:50:44;;;;;;;;;;;23.30;84.70;;;;;;5175251;28;19932;-57
2021/07/18 09:53:18;;;;;;;;;;;23.30;84.80;;;;;;5158596;28;19932;-59
2021/07/18 09:55:57;;;;;;;;;;;23.30;84.70;;;;;;5189899;28;20308;-57
2021/07/18 09:58:31;;;;;;;;;;;23.30;84.60;;;;;;5205514;28;19928;-59
2021/07/18 10:01:06;;;;;;;;;;;23.30;84.60;;;;;;5189461;28;19936;-58
2021/07/18 10:03:44;;;;;;;;;;;23.30;84.50;;;;;;5199198;28;20312;-58
2021/07/18 10:06:18;;;;;;;;;;;23.30;84.40;;;;;;5190434;28;19924;-58
2021/07/18 10:08:53;;;;;;;;;;;23.40;84.40;;;;;;5196916;28;20301;-59
2021/07/18 10:11:26;;;;;;;;;;;23.40;84.40;;;;;;5189616;28;20305;-59
2021/07/18 10:13:58;;;;;;;;;;;23.40;84.40;;;;;;5194907;28;20575;-59
2021/07/18 10:16:34;;;;;;;;;;;23.40;84.40;;;;;;5196055;28;19935;-58
2021/07/18 10:19:07;;;;;;;;;;;23.40;84.40;;;;;;5198980;28;19925;-58
2021/07/18 10:21:39;;;;;;;;;;;23.40;84.30;;;;;;5192435;28;20597;-59
2021/07/18 10:24:12;;;;;;;;;;;23.50;84.30;;;;;;5197399;28;20265;-59
2021/07/18 10:26:44;;;;;;;;;;;23.50;84.30;;;;;;5180523;28;20552;-56
2021/07/18 10:29:17;;;;;;;;;;;23.50;85.00;;;;;;5185286;28;19929;-56
2021/07/18 10:31:50;;;;;;;;;;;23.50;84.40;;;;;;5166083;28;20708;-57
2021/07/18 10:34:31;;;;;;;;;;;23.50;84.50;;;;;;5179446;28;20389;-59
2021/07/18 10:37:07;;;;;;;;;;;23.50;84.30;;;;;;5195706;28;19932;-59
2021/07/18 10:39:41;;;;;;;;;;;23.50;84.20;;;;;;5193954;28;19946;-58
2021/07/18 10:42:14;;;;;;;;;;;23.50;84.30;;;;;;5195303;28;19929;-59
2021/07/18 10:44:48;;;;;;;;;;;23.50;84.20;;;;;;5192671;28;19929;-59
2021/07/18 10:47:20;;;;;;;;;;;23.50;84.20;;;;;;5196094;28;20606;-59
2021/07/18 10:49:57;;;;;;;;;;;23.50;84.10;;;;;;5189945;28;19929;-59
2021/07/18 10:52:31;;;;;;;;;;;23.50;84.20;;;;;;5195860;28;19924;-58
2021/07/18 10:55:23;;;;;;;;;;;23.60;84.00;;;;;;5191914;28;19958;-57
2021/07/18 10:57:55;;;;;;;;;;;23.60;84.10;;;;;;5175820;28;19925;-58
2021/07/18 11:00:29;;;;;;;;;;;23.60;84.10;;;;;;5190005;28;20309;-59
2021/07/18 11:03:08;;;;;;;;;;;23.60;84.00;;;;;;5191670;28;19931;-57
2021/07/18 11:05:45;;;;;;;;;;;23.60;84.10;;;;;;5180929;28;20481;-59
2021/07/18 11:08:17;;;;;;;;;;;23.60;84.00;;;;;;5167876;28;20385;-59
2021/07/18 11:10:54;;;;;;;;;;;23.60;84.00;;;;;;5179867;28;19939;-59
2021/07/18 11:13:26;;;;;;;;;;;23.60;83.90;;;;;;5187551;28;19940;-59
2021/07/18 11:15:58;;;;;;;;;;;23.60;83.90;;;;;;5173516;28;19924;-58
2021/07/18 11:18:35;;;;;;;;;;;23.60;83.90;;;;;;5151387;28;19937;-59
2021/07/18 11:21:34;;;;;;;;;;;23.70;84.60;;;;;;5161605;28;20313;-59
2021/07/18 11:24:06;;;;;;;;;;;23.60;83.90;;;;;;5170827;28;19925;-59
2021/07/18 11:26:47;;;;;;;;;;;23.70;84.00;;;;;;5174362;28;19932;-58
2021/07/18 11:29:31;;;;;;;;;;;23.70;83.90;;;;;;5183525;28;19929;-59
2021/07/18 11:32:18;;;;;;;;;;;23.60;83.70;;;;;;5189770;28;19936;-58
2021/07/18 11:34:50;;;;;;;;;;;23.60;83.40;;;;;;5188945;28;20335;-59
2021/07/18 11:37:24;;;;;;;;;;;23.60;83.30;;;;;;5200015;28;19961;-59
2021/07/18 11:40:16;;;;;;;;;;;23.60;83.10;;;;;;5182061;28;19928;-58
2021/07/18 11:42:52;;;;;;;;;;;23.60;83.10;;;;;;5169685;28;20565;-59
2021/07/18 11:45:30;;;;;;;;;;;23.70;83.10;;;;;;5170924;28;19928;-59
2021/07/18 11:48:03;;;;;;;;;;;23.70;83.20;;;;;;5189414;28;19924;-60
2021/07/18 11:50:35;;;;;;;;;;;23.60;83.00;;;;;;5207600;28;19925;-59
2021/07/18 11:53:07;;;;;;;;;;;23.60;83.00;;;;;;5182661;28;21713;-59
2021/07/18 11:55:41;;;;;;;;;;;23.70;83.00;;;;;;5187442;28;20595;-60
2021/07/18 11:58:13;;;;;;;;;;;23.60;82.90;;;;;;5193882;28;19928;-59
2021/07/18 12:00:55;;;;;;;;;;;23.70;82.90;;;;;;5195858;28;19936;-59
2021/07/18 12:03:27;;;;;;;;;;;23.60;82.90;;;;;;5183134;28;20332;-59
2021/07/18 12:06:00;;;;;;;;;;;23.70;83.00;;;;;;5183540;28;19940;-55
2021/07/18 12:08:35;;;;;;;;;;;23.70;83.20;;;;;;5190156;28;19932;-59
2021/07/18 12:11:08;;;;;;;;;;;23.70;83.40;;;;;;5204631;28;19925;-59
2021/07/18 12:13:43;;;;;;;;;;;23.80;83.40;;;;;;5194569;28;19928;-59
2021/07/18 12:16:15;;;;;;;;;;;23.80;83.50;;;;;;5191872;28;19928;-59
2021/07/18 12:18:48;;;;;;;;;;;23.80;83.60;;;;;;5187624;28;19943;-59
2021/07/18 12:21:20;;;;;;;;;;;23.80;83.80;;;;;;5191992;28;19929;-59
2021/07/18 12:24:12;;;;;;;;;;;23.80;84.10;;;;;;5195135;28;20447;-60
2021/07/18 12:26:45;;;;;;;;;;;23.80;83.80;;;;;;5195272;28;20301;-59
2021/07/18 12:29:18;;;;;;;;;;;23.90;84.20;;;;;;5192809;28;19943;-59
2021/07/18 12:31:50;;;;;;;;;;;23.90;84.10;;;;;;5197344;28;19935;-58
2021/07/18 12:34:30;;;;;;;;;;;23.90;84.30;;;;;;5191084;28;19926;-57
2021/07/18 12:37:04;;;;;;;;;;;23.90;84.70;;;;;;5175548;28;19936;-56
2021/07/18 12:39:40;;;;;;;;;;;23.90;84.90;;;;;;5188268;28;19928;-58
2021/07/18 12:42:18;;;;;;;;;;;23.90;84.50;;;;;;5188153;28;20303;-59
2021/07/18 12:44:52;;;;;;;;;;;23.90;84.80;;;;;;5189421;28;19931;-57
2021/07/18 12:47:25;;;;;;;;;;;23.90;84.50;;;;;;5178557;28;21180;-59
2021/07/18 12:50:02;;;;;;;;;;;24.00;84.60;;;;;;5194693;28;19932;-59
2021/07/18 12:52:36;;;;;;;;;;;24.00;84.50;;;;;;5177080;28;19937;-59
2021/07/18 12:55:15;;;;;;;;;;;24.00;85.30;;;;;;5186016;28;19925;-59
2021/07/18 12:57:47;;;;;;;;;;;24.00;84.30;;;;;;5198120;28;20312;-58
2021/07/18 13:00:24;;;;;;;;;;;24.00;84.40;;;;;;5212418;28;19936;-59
2021/07/18 13:03:15;;;;;;;;;;;24.00;84.30;;;;;;5194855;28;20504;-58
2021/07/18 13:05:48;;;;;;;;;;;24.10;84.20;;;;;;5212742;28;19924;-58
2021/07/18 13:08:33;;;;;;;;;;;24.10;84.30;;;;;;5183621;28;19928;-58
2021/07/18 13:11:06;;;;;;;;;;;24.10;84.40;;;;;;5174734;28;19935;-59
2021/07/18 13:13:38;;;;;;;;;;;24.10;84.20;;;;;;5163277;28;19932;-57
2021/07/18 13:16:11;;;;;;;;;;;24.10;83.90;;;;;;5178586;28;20481;-58
2021/07/18 13:18:44;;;;;;;;;;;24.10;83.90;;;;;;5178510;28;19929;-59
2021/07/18 13:21:18;;;;;;;;;;;24.10;83.90;;;;;;5175744;28;20663;-60
2021/07/18 13:23:50;;;;;;;;;;;24.10;83.90;;;;;;5172871;28;19935;-59
2021/07/18 13:26:32;;;;;;;;;;;24.10;84.00;;;;;;5160517;28;19924;-58
2021/07/18 13:29:14;;;;;;;;;;;24.10;83.90;;;;;;5182619;28;19929;-57
2021/07/18 13:31:50;;;;;;;;;;;24.00;83.90;;;;;;5166336;28;19944;-59
2021/07/18 13:34:22;;;;;;;;;;;24.00;84.00;;;;;;5158434;28;19935;-58
2021/07/18 13:36:56;;;;;;;;;;;24.00;83.90;;;;;;5165667;28;19928;-59
2021/07/18 13:39:28;;;;;;;;;;;24.10;83.80;;;;;;5166220;28;19929;-59
2021/07/18 13:42:05;;;;;;;;;;;24.10;83.70;;;;;;5174141;28;19925;-59
2021/07/18 13:44:38;;;;;;;;;;;24.10;83.70;;;;;;5174815;28;19935;-59
2021/07/18 13:47:10;;;;;;;;;;;24.10;83.50;;;;;;5187754;28;20305;-59
2021/07/18 13:49:42;;;;;;;;;;;24.10;83.20;;;;;;5189868;28;19921;-60
2021/07/18 13:52:15;;;;;;;;;;;24.20;82.90;;;;;;5213114;28;20314;-59
2021/07/18 13:54:47;;;;;;;;;;;24.20;82.60;;;;;;5200282;28;20293;-59
2021/07/18 13:57:19;;;;;;;;;;;24.20;82.50;;;;;;5197976;28;19936;-59
2021/07/18 13:59:52;;;;;;;;;;;24.20;82.30;;;;;;5202062;28;19920;-56
2021/07/18 14:02:24;;;;;;;;;;;24.20;82.20;;;;;;5200560;28;19929;-59
2021/07/18 14:04:56;;;;;;;;;;;24.20;82.20;;;;;;5202127;28;21168;-59
2021/07/18 14:07:28;;;;;;;;;;;24.20;82.20;;;;;;5197831;28;19929;-58
2021/07/18 14:10:01;;;;;;;;;;;24.10;82.20;;;;;;5203874;28;19925;-60
2021/07/18 14:12:33;;;;;;;;;;;24.10;82.30;;;;;;5198975;28;19920;-59
2021/07/18 14:15:10;;;;;;;;;;;24.10;82.40;;;;;;5186863;28;19925;-58
2021/07/18 14:17:42;;;;;;;;;;;24.10;82.40;;;;;;5195984;28;20389;-59
2021/07/18 14:20:15;;;;;;;;;;;24.10;82.40;;;;;;5215560;28;19933;-59
2021/07/18 14:22:48;;;;;;;;;;;24.10;82.30;;;;;;5199827;28;20313;-59
2021/07/18 14:25:21;;;;;;;;;;;24.10;82.30;;;;;;5198817;28;19929;-58
2021/07/18 14:27:55;;;;;;;;;;;24.10;82.20;;;;;;5200019;28;19948;-59
2021/07/18 14:30:28;;;;;;;;;;;24.10;82.20;;;;;;5198900;28;19936;-59
2021/07/18 14:33:01;;;;;;;;;;;24.10;82.20;;;;;;5195098;28;19934;-57
2021/07/18 14:35:34;;;;;;;;;;;24.10;82.10;;;;;;5200707;28;20407;-59
2021/07/18 14:38:07;;;;;;;;;;;24.10;82.00;;;;;;5198866;28;19932;-59
2021/07/18 14:40:41;;;;;;;;;;;24.10;82.00;;;;;;5181079;28;20498;-59
2021/07/18 14:43:14;;;;;;;;;;;24.10;81.90;;;;;;5199152;28;19932;-59
2021/07/18 14:45:46;;;;;;;;;;;24.10;81.90;;;;;;5194892;28;19935;-60
2021/07/18 14:48:18;;;;;;;;;;;24.10;81.80;;;;;;5201684;28;19924;-59
2021/07/18 14:50:53;;;;;;;;;;;24.10;81.80;;;;;;5197688;28;20755;-59
2021/07/18 14:53:25;;;;;;;;;;;24.00;81.80;;;;;;5204222;28;19932;-60